aviador You're here:

LFMH Decoded Metar

ST.-ETIENNE in FRANCE
Report Time2017-08-17 13:00:00
UTC Time2017-08-17 13:30:29
Flight Rules vfr VFR
Wind160° at 07 kt
W.Decomp.*RWY 18: 6.6 kt HW 2.4 kt LCW
W.Rank160° ranks 1
Current wind is above 160° avg. (6.1)
Visibility9999 m
Phenomena:N/A
Clouds:Few 058 Hf
Expected CloudBase > 6,000 ft AGL from Temp-Dew spread
CeilingNone
Temp29°C (ISA +17)
Dew Point14°C (40% RH)
Heat Index28.6°C
AAT27.7°C
QNH1020 hPa
Density Alt3,205 ft
Elevation1,319 ft
Report Wrong Elevation
Raw Report
METAR LFMH 171300Z AUTO 16007KT 120V200 9999 FEW058 29/14 Q1020 NOSIG=

Extra information for LFMH:More info

Metar Taf Metar & Taf Last 4 Metars F.Rules Stats Wind Profile Meteogram Temp Stats Airport Information Weather charts Add Link Nearby VenuesMetar ALERT Operation Metar Decoded Social comments